Time;durP1;ratioP1;P1;durP2;ratioP2;P2;SDS_P1;SDS_P2;PMS_P1;PMS_P2;Temp;Humidity;BMP_temperature;BMP_pressure;BME280_temperature;BME280_humidity;BME280_pressure;Samples;Min_cycle;Max_cycle;Signal;HPM_P1;HPM_P2
2021/11/25 00:01:32;;;;;;;30.50;16.13;;;;;;;1.56;100.00;99848.78;5099182;28;20040;-80
2021/11/25 00:04:18;;;;;;;29.98;15.68;;;;;;;1.52;100.00;99840.97;5098454;28;20119;-80
2021/11/25 00:07:03;;;;;;;29.52;16.25;;;;;;;1.42;100.00;99845.16;5083920;28;20036;-80
2021/11/25 00:09:48;;;;;;;30.17;15.43;;;;;;;1.33;100.00;99839.88;5098680;28;20039;-80
2021/11/25 00:12:32;;;;;;;26.40;14.82;;;;;;;1.23;100.00;99844.06;5098972;28;20138;-80
2021/11/25 00:15:17;;;;;;;26.52;14.15;;;;;;;1.21;100.00;99838.03;5098229;28;20043;-80
2021/11/25 00:18:01;;;;;;;29.60;14.88;;;;;;;1.10;100.00;99831.84;5098082;28;20403;-80
2021/11/25 00:20:46;;;;;;;33.45;16.85;;;;;;;1.01;100.00;99824.88;5098064;28;20106;-80
2021/11/25 00:23:30;;;;;;;42.15;21.90;;;;;;;0.81;100.00;99811.66;5097983;28;20044;-80
2021/11/25 00:26:16;;;;;;;41.13;21.17;;;;;;;0.74;100.00;99817.56;5097436;28;20044;-80
2021/11/25 00:29:01;;;;;;;42.33;21.77;;;;;;;0.74;100.00;99816.72;5097754;28;20044;-80
2021/11/25 00:31:46;;;;;;;41.92;20.10;;;;;;;0.63;100.00;99808.84;5098237;28;20036;-80
2021/11/25 00:34:31;;;;;;;36.50;20.90;;;;;;;0.57;100.00;99808.75;5098253;28;20041;-79
2021/11/25 00:37:15;;;;;;;46.70;25.25;;;;;;;0.47;100.00;99806.00;5097940;28;20352;-79
2021/11/25 00:39:59;;;;;;;39.92;23.20;;;;;;;0.45;100.00;99812.84;5098242;28;20131;-79
2021/11/25 00:42:45;;;;;;;44.45;26.10;;;;;;;0.41;100.00;99815.38;5098102;28;20052;-80
2021/11/25 00:45:29;;;;;;;33.95;19.30;;;;;;;0.41;100.00;99807.63;5083326;28;20139;-80
2021/11/25 00:48:13;;;;;;;35.58;20.33;;;;;;;0.35;100.00;99813.53;5098158;28;20044;-80
2021/11/25 00:50:58;;;;;;;35.92;19.52;;;;;;;0.27;100.00;99804.84;5098066;28;20051;-79
2021/11/25 00:53:42;;;;;;;38.92;22.15;;;;;;;0.22;100.00;99789.28;5097119;28;20435;-80
2021/11/25 00:56:27;;;;;;;42.97;22.85;;;;;;;0.16;100.00;99794.38;5097851;28;20051;-80
2021/11/25 00:59:11;;;;;;;39.38;22.95;;;;;;;0.06;100.00;99779.56;5097691;28;20048;-80
2021/11/25 01:01:55;;;;;;;39.10;22.05;;;;;;;0.04;100.00;99778.69;5098129;28;20067;-80
2021/11/25 01:04:40;;;;;;;41.22;24.15;;;;;;;0.02;100.00;99775.22;5097816;28;20044;-80
2021/11/25 01:07:24;;;;;;;41.10;24.23;;;;;;;-0.01;100.00;99767.44;5096896;28;20048;-80
2021/11/25 01:10:11;;;;;;;38.80;22.10;;;;;;;-0.02;100.00;99765.72;5097492;28;20048;-80
2021/11/25 01:12:57;;;;;;;32.70;21.75;;;;;;;-0.13;100.00;99768.13;5097320;28;20039;-80
2021/11/25 01:15:41;;;;;;;36.00;20.38;;;;;;;-0.20;100.00;99763.69;5097091;28;20044;-80
2021/11/25 01:18:26;;;;;;;35.53;22.13;;;;;;;-0.26;100.00;99754.16;5097530;28;20040;-80
2021/11/25 01:21:10;;;;;;;34.05;20.63;;;;;;;-0.29;100.00;99758.41;5096838;28;20040;-80
2021/11/25 01:23:54;;;;;;;31.38;19.20;;;;;;;-0.37;100.00;99757.38;5097414;28;20040;-80
2021/11/25 01:26:39;;;;;;;31.55;19.00;;;;;;;-0.38;100.00;99755.66;5097268;28;20054;-80
2021/11/25 01:29:24;;;;;;;35.95;20.20;;;;;;;-0.47;100.00;99746.91;5097282;28;20047;-79
2021/11/25 01:32:08;;;;;;;37.40;21.40;;;;;;;-0.54;100.00;99746.78;5096574;28;20056;-80
2021/11/25 01:34:52;;;;;;;36.50;20.55;;;;;;;-0.54;100.00;99733.91;5097429;28;20035;-80
2021/11/25 01:37:38;;;;;;;36.20;19.58;;;;;;;-0.55;100.00;99738.19;5096295;28;20071;-79
2021/11/25 01:40:22;;;;;;;30.27;18.92;;;;;;;-0.57;100.00;99723.56;5096324;28;20501;-79
2021/11/25 01:43:07;;;;;;;32.75;18.92;;;;;;;-0.60;100.00;99729.50;5097071;28;20039;-79
2021/11/25 01:45:54;;;;;;;42.42;22.75;;;;;;;-0.62;100.00;99722.59;5096993;28;20040;-79
2021/11/25 01:48:39;;;;;;;42.90;22.92;;;;;;;-0.68;100.00;99712.19;5097098;28;20052;-80
2021/11/25 01:51:24;;;;;;;38.15;21.90;;;;;;;-0.87;100.00;99698.13;5096909;28;20040;-79
2021/11/25 01:54:08;;;;;;;36.90;20.10;;;;;;;-0.90;100.00;99698.09;5097073;28;20367;-79
2021/11/25 01:56:53;;;;;;;35.65;19.83;;;;;;;-0.92;100.00;99698.03;5096794;28;20037;-79
2021/11/25 01:59:37;;;;;;;33.38;19.25;;;;;;;-1.07;100.00;99702.88;5096867;28;20052;-79
2021/11/25 02:02:21;;;;;;;31.90;19.70;;;;;;;-1.01;100.00;99692.72;5096034;28;20058;-79
2021/11/25 02:05:06;;;;;;;32.38;18.98;;;;;;;-1.03;100.00;99687.56;5095948;28;20040;-79
2021/11/25 02:07:51;;;;;;;31.08;18.20;;;;;;;-1.04;100.00;99682.34;5096108;28;20081;-79
2021/11/25 02:10:38;;;;;;;39.72;23.50;;;;;;;-1.11;100.00;99691.66;5096516;28;20036;-79
2021/11/25 02:13:23;;;;;;;34.58;20.65;;;;;;;-1.22;100.00;99683.75;5095811;28;20118;-79
2021/11/25 02:16:07;;;;;;;39.47;21.33;;;;;;;-1.24;100.00;99666.53;5096646;28;20190;-79
2021/11/25 02:18:52;;;;;;;34.90;20.23;;;;;;;-1.32;100.00;99662.97;5095910;28;20040;-79
2021/11/25 02:21:37;;;;;;;35.00;18.63;;;;;;;-1.39;100.00;99663.69;5095762;28;20044;-79
2021/11/25 02:24:21;;;;;;;30.27;18.50;;;;;;;-1.41;100.00;99667.06;5095827;28;20040;-79
2021/11/25 02:27:05;;;;;;;34.80;18.13;;;;;;;-1.53;100.00;99660.81;5096620;28;20036;-79
2021/11/25 02:29:50;;;;;;;33.42;18.63;;;;;;;-1.55;100.00;99649.66;5096294;28;20040;-79
2021/11/25 02:32:37;;;;;;;35.60;20.52;;;;;;;-1.56;100.00;99643.66;5081368;28;20048;-79
2021/11/25 02:35:25;;;;;;;32.08;17.55;;;;;;;-1.60;100.00;99639.25;5095512;28;20043;-79
2021/11/25 02:38:11;;;;;;;31.95;17.23;;;;;;;-1.65;100.00;99638.31;5095662;28;20040;-79
2021/11/25 02:40:57;;;;;;;30.85;17.73;;;;;;;-1.68;100.00;99622.84;5096244;28;20043;-79
2021/11/25 02:43:41;;;;;;;34.38;20.90;;;;;;;-1.69;100.00;99621.97;5096077;28;20070;-79
2021/11/25 02:46:26;;;;;;;33.42;19.90;;;;;;;-1.68;100.00;99617.69;5081236;28;20040;-79
2021/11/25 02:49:10;;;;;;;38.28;21.63;;;;;;;-1.73;100.00;99612.44;5096888;28;20040;-79
2021/11/25 02:51:54;;;;;;;32.42;19.60;;;;;;;-1.77;100.00;99608.09;5100426;28;20039;-79
2021/11/25 02:54:42;;;;;;;32.30;19.30;;;;;;;-1.75;100.00;99603.88;5100213;28;20043;-78
2021/11/25 02:57:27;;;;;;;32.05;19.13;;;;;;;-1.83;100.00;99599.41;5100110;28;20069;-78
2021/11/25 03:00:20;;;;;;;30.95;19.15;;;;;;;-1.90;100.00;99604.41;5099404;28;20063;-78
2021/11/25 03:03:12;;;;;;;38.53;20.63;;;;;;;-1.99;100.00;99599.06;5100031;28;20115;-78
2021/11/25 03:05:56;;;;;;;36.55;20.55;;;;;;;-1.98;100.00;99597.34;5100047;28;20040;-79
2021/11/25 03:08:40;;;;;;;37.55;19.92;;;;;;;-2.01;100.00;99597.31;5100180;28;20407;-79
2021/11/25 03:11:27;;;;;;;35.72;20.33;;;;;;;-2.04;100.00;99582.69;5099837;28;20501;-78
2021/11/25 03:14:11;;;;;;;46.17;22.55;;;;;;;-2.07;100.00;99582.63;5100003;28;20047;-78
2021/11/25 03:16:56;;;;;;;44.28;24.80;;;;;;;-1.98;100.00;99593.09;5099767;28;20044;-79
2021/11/25 03:19:40;;;;;;;41.25;22.77;;;;;;;-2.01;100.00;99579.34;5099681;28;20036;-79
2021/11/25 03:22:24;;;;;;;41.83;23.55;;;;;;;-2.05;100.00;99585.22;5099023;28;20044;-79
2021/11/25 03:25:10;;;;;;;42.47;23.60;;;;;;;-2.00;100.00;99574.22;5099632;28;20039;-78
2021/11/25 03:27:54;;;;;;;42.08;23.45;;;;;;;-2.02;100.00;99564.75;5099597;28;20398;-78
2021/11/25 03:30:39;;;;;;;41.80;23.60;;;;;;;-2.00;100.00;99563.09;5099454;28;20044;-78
2021/11/25 03:33:28;;;;;;;42.47;23.33;;;;;;;-2.05;100.00;99552.72;5099544;28;20048;-78
2021/11/25 03:36:12;;;;;;;41.30;23.52;;;;;;;-2.05;100.00;99556.97;5099218;28;20114;-79
2021/11/25 03:38:57;;;;;;;43.83;23.27;;;;;;;-2.06;100.00;99547.56;5098878;28;20051;-78
2021/11/25 03:41:41;;;;;;;45.10;24.23;;;;;;;-2.08;100.00;99550.13;5098856;28;20072;-78
2021/11/25 03:44:27;;;;;;;48.38;26.92;;;;;;;-2.10;100.00;99549.19;5099208;28;20036;-78
2021/11/25 03:47:13;;;;;;;44.03;25.13;;;;;;;-2.06;100.00;99533.03;5099312;28;20037;-78
2021/11/25 03:49:57;;;;;;;42.90;26.60;;;;;;;-2.05;100.00;99528.75;5098540;28;20036;-78
2021/11/25 03:52:45;;;;;;;52.08;29.60;;;;;;;-2.10;100.00;99515.84;5099078;28;20040;-78
2021/11/25 03:55:30;;;;;;;62.22;31.77;;;;;;;-2.09;100.00;99515.00;5098969;28;20040;-78
2021/11/25 03:58:14;;;;;;;62.88;33.83;;;;;;;-2.14;100.00;99504.63;5099001;28;20082;-78
2021/11/25 04:00:59;;;;;;;56.20;30.85;;;;;;;-2.14;100.00;99499.50;5097822;28;20060;-78
2021/11/25 04:03:43;;;;;;;54.80;31.58;;;;;;;-2.15;100.00;99496.91;5098902;28;20036;-78
2021/11/25 04:06:28;;;;;;;52.38;28.88;;;;;;;-2.11;100.00;99493.59;5098876;28;20055;-78
2021/11/25 04:09:12;;;;;;;47.92;27.67;;;;;;;-2.16;100.00;99490.03;5083898;28;20067;-78
2021/11/25 04:11:57;;;;;;;55.55;29.50;;;;;;;-2.11;100.00;99480.75;5098208;28;20040;-78
2021/11/25 04:14:41;;;;;;;54.33;29.63;;;;;;;-2.10;100.00;99476.47;5098602;28;20040;-78
2021/11/25 04:17:25;;;;;;;52.05;28.35;;;;;;;-2.08;100.00;99470.53;5098548;28;20343;-78
2021/11/25 04:20:10;;;;;;;53.53;30.17;;;;;;;-2.13;100.00;99474.72;5098064;28;20071;-78
2021/11/25 04:22:55;;;;;;;60.85;34.45;;;;;;;-2.07;100.00;99473.97;5083828;28;20421;-78
2021/11/25 04:25:40;;;;;;;59.25;32.58;;;;;;;-2.06;100.00;99460.28;5098500;28;20044;-78
2021/11/25 04:28:24;;;;;;;62.42;33.40;;;;;;;-2.04;100.00;99459.50;5098350;28;20048;-78
2021/11/25 04:37:22;;;;;;;65.43;35.47;;;;;;;-1.99;100.00;99442.47;5097484;28;20398;-78
2021/11/25 04:40:07;;;;;;;68.88;38.38;;;;;;;-1.96;100.00;99442.53;5098506;28;20448;-78
2021/11/25 04:42:51;;;;;;;68.55;36.88;;;;;;;-1.94;100.00;99438.31;5098150;28;20040;-78
2021/11/25 04:45:38;;;;;;;60.28;33.42;;;;;;;-1.93;100.00;99439.16;5097982;28;20110;-78
2021/11/25 04:48:25;;;;;;;54.17;31.15;;;;;;;-1.96;100.00;99436.53;5098105;28;20051;-78
2021/11/25 04:51:09;;;;;;;52.30;29.90;;;;;;;-1.99;100.00;99429.63;5097492;28;20032;-78
2021/11/25 04:53:54;;;;;;;57.17;30.05;;;;;;;-2.00;100.00;99430.47;5097541;28;20044;-78
2021/11/25 04:56:39;;;;;;;54.35;27.30;;;;;;;-2.08;100.00;99415.75;5097802;28;20040;-78
2021/11/25 04:59:23;;;;;;;61.42;33.75;;;;;;;-2.04;100.00;99418.44;5097786;28;20109;-78
2021/11/25 05:02:07;;;;;;;76.95;38.30;;;;;;;-2.06;100.00;99414.97;5083047;28;20058;-78
2021/11/25 05:04:51;;;;;;;74.57;38.38;;;;;;;-2.12;100.00;99408.00;5097631;28;20036;-78
2021/11/25 05:07:36;;;;;;;67.15;36.97;;;;;;;-2.23;100.00;99401.81;5097765;28;20040;-78
2021/11/25 05:10:20;;;;;;;60.00;34.42;;;;;;;-2.21;100.00;99391.56;5097218;28;20089;-78
2021/11/25 05:13:04;;;;;;;58.53;33.65;;;;;;;-2.31;100.00;99390.50;5081983;28;20044;-78
2021/11/25 05:15:49;;;;;;;57.33;31.42;;;;;;;-2.35;100.00;99398.97;5097604;28;20043;-78
2021/11/25 05:18:33;;;;;;;52.95;29.73;;;;;;;-2.45;100.00;99397.06;5096936;28;20102;-78
2021/11/25 05:21:18;;;;;;;53.63;31.33;;;;;;;-2.49;100.00;99391.03;5097803;28;20055;-78
2021/11/25 05:24:03;;;;;;;48.78;28.40;;;;;;;-2.62;100.00;99382.19;5083329;28;20063;-78
2021/11/25 05:26:48;;;;;;;58.28;32.97;;;;;;;-2.55;100.00;99377.22;5097945;28;20044;-78
2021/11/25 05:29:32;;;;;;;67.72;35.05;;;;;;;-2.61;100.00;99371.09;5098024;28;20093;-78
2021/11/25 05:32:17;;;;;;;67.45;36.15;;;;;;;-2.60;100.00;99361.72;5097648;28;20040;-78
2021/11/25 05:35:01;;;;;;;63.08;34.03;;;;;;;-2.59;100.00;99363.47;5098123;28;20044;-78
2021/11/25 05:37:46;;;;;;;65.57;34.05;;;;;;;-2.61;100.00;99359.97;5097937;28;20047;-78
2021/11/25 05:40:30;;;;;;;61.55;32.90;;;;;;;-2.58;100.00;99355.78;5097849;28;20056;-78
2021/11/25 05:43:15;;;;;;;65.70;33.60;;;;;;;-2.55;100.00;99359.25;5097142;28;20109;-78
2021/11/25 05:45:59;;;;;;;71.05;36.03;;;;;;;-2.56;100.00;99350.69;5096500;28;20466;-78
2021/11/25 05:48:45;;;;;;;72.70;37.40;;;;;;;-2.52;100.00;99361.88;5097067;28;20542;-78
2021/11/25 05:51:30;;;;;;;73.68;38.30;;;;;;;-2.50;100.00;99349.94;5096895;28;20356;-78
2021/11/25 05:54:14;;;;;;;69.82;34.10;;;;;;;-2.51;100.00;99351.63;5097297;28;20048;-78
2021/11/25 05:56:58;;;;;;;78.78;42.47;;;;;;;-2.55;100.00;99354.97;5097044;28;20040;-78
2021/11/25 05:59:42;;;;;;;96.13;48.00;;;;;;;-2.48;100.00;99350.84;5096661;28;20455;-78
2021/11/25 06:02:28;;;;;;;88.75;44.33;;;;;;;-2.46;100.00;99352.59;5097230;28;20360;-78
2021/11/25 06:05:15;;;;;;;117.18;50.85;;;;;;;-2.53;100.00;99342.22;5096952;28;20081;-78
2021/11/25 06:08:02;;;;;;;139.50;61.30;;;;;;;-2.48;100.00;99341.44;5096864;28;20452;-78
2021/11/25 06:10:46;;;;;;;159.05;58.92;;;;;;;-2.33;100.00;99329.78;5096571;28;20040;-78
2021/11/25 06:13:30;;;;;;;94.45;41.60;;;;;;;-2.27;100.00;99332.44;5096885;28;20051;-73
2021/11/25 06:16:15;;;;;;;89.53;38.85;;;;;;;-2.16;100.00;99333.50;5095150;28;20046;-72
2021/11/25 06:18:59;;;;;;;86.25;39.10;;;;;;;-2.12;100.00;99325.88;5094375;28;20047;-73
2021/11/25 06:21:43;;;;;;;91.72;42.60;;;;;;;-2.08;100.00;99326.81;5094853;28;20036;-73
2021/11/25 06:24:28;;;;;;;65.63;32.60;;;;;;;-1.96;100.00;99328.72;5093957;28;20036;-76
2021/11/25 06:27:12;;;;;;;63.80;30.42;;;;;;;-1.89;100.00;99326.28;5080979;28;20056;-74
2021/11/25 06:29:57;;;;;;;62.90;29.30;;;;;;;-1.77;100.00;99333.34;5094095;28;20040;-74
2021/11/25 06:32:44;;;;;;;62.17;29.35;;;;;;;-1.59;100.00;99326.75;5094330;28;20040;-74
2021/11/25 06:35:28;;;;;;;53.85;27.02;;;;;;;-1.58;100.00;99324.22;5094572;28;20036;-74
2021/11/25 06:38:12;;;;;;;66.57;31.85;;;;;;;-1.59;100.00;99316.47;5095419;28;20036;-74
2021/11/25 06:40:57;;;;;;;50.30;26.08;;;;;;;-1.55;100.00;99319.16;5096615;28;20101;-74
2021/11/25 06:43:40;;;;;;;62.50;28.15;;;;;;;-1.52;100.00;99318.34;5094473;28;20119;-74
2021/11/25 06:46:25;;;;;;;52.75;26.52;;;;;;;-1.36;100.00;99329.72;5079612;28;20105;-74
2021/11/25 06:49:09;;;;;;;50.03;27.20;;;;;;;-1.29;100.00;99321.25;5093754;28;20040;-74
2021/11/25 06:51:54;;;;;;;47.08;25.58;;;;;;;-1.27;100.00;99316.97;5093681;28;20067;-74
2021/11/25 06:54:38;;;;;;;46.97;25.65;;;;;;;-1.36;100.00;99322.00;5093778;28;20115;-74
2021/11/25 06:57:22;;;;;;;46.22;26.17;;;;;;;-1.28;100.00;99313.56;5094356;28;20115;-74
2021/11/25 07:00:14;;;;;;;64.05;30.75;;;;;;;-1.25;100.00;99318.72;5093965;28;20055;-74
2021/11/25 07:02:59;;;;;;;74.32;34.85;;;;;;;-1.25;100.00;99307.59;5093753;28;20364;-74
2021/11/25 07:05:43;;;;;;;58.70;31.50;;;;;;;-1.14;100.00;99305.16;5096164;28;20047;-74
2021/11/25 07:08:29;;;;;;;54.40;28.23;;;;;;;-1.09;100.00;99306.97;5092440;28;20059;-74
2021/11/25 07:11:13;;;;;;;59.42;32.15;;;;;;;-1.05;100.00;99301.00;5095837;28;20036;-74
2021/11/25 07:13:57;;;;;;;50.10;27.98;;;;;;;-0.95;100.00;99302.88;5096380;28;20044;-75
2021/11/25 07:16:42;;;;;;;47.97;27.48;;;;;;;-0.87;100.00;99297.84;5095397;28;20052;-75
2021/11/25 07:19:28;;;;;;;74.82;35.28;;;;;;;-0.80;100.00;99294.50;5095901;28;20054;-74
2021/11/25 07:22:12;;;;;;;63.03;34.95;;;;;;;-0.74;100.00;99289.44;5095798;28;20047;-75
2021/11/25 07:24:57;;;;;;;51.80;28.33;;;;;;;-0.58;100.00;99289.63;5096189;28;20036;-75
2021/11/25 07:27:41;;;;;;;60.72;31.48;;;;;;;-0.49;100.00;99292.25;5094831;28;20048;-75
2021/11/25 07:30:26;;;;;;;43.58;24.70;;;;;;;-0.36;100.00;99285.53;5095248;28;20352;-75
2021/11/25 07:33:10;;;;;;;40.75;23.08;;;;;;;-0.19;100.00;99284.03;5094951;28;20436;-75
2021/11/25 07:35:54;;;;;;;41.58;24.73;;;;;;;-0.06;100.00;99275.56;5096975;28;20044;-75
2021/11/25 07:38:38;;;;;;;40.00;24.23;;;;;;;0.12;100.00;99284.28;5099614;28;20403;-75
2021/11/25 07:41:23;;;;;;;42.85;25.63;;;;;;;0.22;100.00;99278.38;5101931;28;20044;-75
2021/11/25 07:44:07;;;;;;;41.63;23.77;;;;;;;0.31;100.00;99281.03;5099609;28;20043;-75
2021/11/25 07:46:52;;;;;;;45.95;24.30;;;;;;;0.46;100.00;99288.88;5099391;28;20044;-75
2021/11/25 07:49:37;;;;;;;49.83;26.95;;;;;;;0.65;100.00;99282.13;5099667;28;20476;-75
2021/11/25 07:52:23;;;;;;;38.90;21.80;;;;;;;0.70;100.00;99270.13;5098407;28;20386;-75
2021/11/25 07:55:10;;;;;;;39.85;23.92;;;;;;;0.99;100.00;99287.47;5099089;28;20421;-75
2021/11/25 07:57:55;;;;;;;37.22;21.85;;;;;;;0.83;100.00;99283.94;5098803;28;20048;-75
2021/11/25 08:00:40;;;;;;;36.67;20.45;;;;;;;1.13;100.00;99283.22;5099219;28;20056;-75
2021/11/25 08:03:25;;;;;;;29.92;18.73;;;;;;;1.15;100.00;99286.69;5098195;28;20329;-75
2021/11/25 08:06:09;;;;;;;33.53;21.35;;;;;;;1.23;100.00;99278.97;5098645;28;20344;-75
2021/11/25 08:08:54;;;;;;;35.05;19.30;;;;;;;1.43;100.00;99283.34;5098841;28;20036;-75
2021/11/25 08:11:38;;;;;;;31.55;19.13;;;;;;;1.43;100.00;99265.28;5098527;28;20044;-75
2021/11/25 08:14:22;;;;;;;30.35;19.02;;;;;;;1.46;100.00;99266.16;5098725;28;20417;-75
2021/11/25 08:17:09;;;;;;;31.33;19.73;;;;;;;1.66;100.00;99261.06;5097830;28;20048;-75
2021/11/25 08:19:54;;;;;;;36.50;21.45;;;;;;;1.70;100.00;99265.38;5098756;28;20437;-75
2021/11/25 08:22:40;;;;;;;30.38;18.20;;;;;;;2.00;100.00;99266.28;5083729;28;20040;-75
2021/11/25 08:25:25;;;;;;;31.15;18.73;;;;;;;2.14;100.00;99274.03;5098118;28;20044;-75
2021/11/25 08:28:10;;;;;;;32.47;21.40;;;;;;;2.22;100.00;99273.19;5098285;28;20059;-76
2021/11/25 08:30:55;;;;;;;31.95;19.75;;;;;;;2.10;100.00;99265.41;5097780;28;20052;-76
2021/11/25 08:33:39;;;;;;;33.65;21.15;;;;;;;2.27;100.00;99265.41;5098372;28;20040;-76
2021/11/25 08:36:23;;;;;;;31.75;20.77;;;;;;;2.30;100.00;99257.66;5097384;28;20040;-76
2021/11/25 08:39:08;;;;;;;29.77;19.90;;;;;;;2.41;100.00;99253.38;5098311;28;20044;-76
2021/11/25 08:41:54;;;;;;;31.02;20.38;;;;;;;2.44;100.00;99267.97;5098746;28;20051;-76
2021/11/25 08:44:38;;;;;;;29.75;20.33;;;;;;;2.41;100.00;99265.44;5097765;28;20352;-76
2021/11/25 08:47:22;;;;;;;30.17;19.13;;;;;;;2.24;100.00;99263.72;5096042;28;20402;-76
2021/11/25 08:50:09;;;;;;;26.33;18.48;;;;;;;2.43;100.00;99263.69;5098840;28;20040;-76
2021/11/25 08:52:54;;;;;;;30.48;18.05;;;;;;;2.79;100.00;99247.25;5097985;28;20055;-76
2021/11/25 08:55:39;;;;;;;31.25;19.10;;;;;;;2.79;100.00;99253.31;5083603;28;20071;-76
2021/11/25 08:58:24;;;;;;;37.25;20.65;;;;;;;2.98;100.00;99246.31;5098265;28;20040;-76
2021/11/25 09:01:08;;;;;;;34.63;19.98;;;;;;;2.83;100.00;99248.09;5097144;28;20136;-76
2021/11/25 09:03:52;;;;;;;36.17;19.77;;;;;;;2.73;100.00;99235.22;5098055;28;20036;-76
2021/11/25 09:06:36;;;;;;;42.78;22.40;;;;;;;3.12;100.00;99235.06;5096844;28;20317;-76
2021/11/25 09:09:21;;;;;;;29.42;18.45;;;;;;;2.76;100.00;99223.97;5097277;28;20044;-76
2021/11/25 09:12:06;;;;;;;32.55;19.67;;;;;;;3.07;99.99;99213.53;5096592;28;20420;-76
2021/11/25 09:14:51;;;;;;;46.38;24.98;;;;;;;3.33;98.51;99224.63;5098688;28;20343;-76
2021/11/25 09:17:36;;;;;;;130.05;65.97;;;;;;;2.78;100.00;99215.34;5097202;28;20046;-76
2021/11/25 09:20:22;;;;;;;75.13;46.55;;;;;;;3.06;99.62;99215.25;5097657;28;20043;-76
2021/11/25 09:23:09;;;;;;;49.92;30.55;;;;;;;2.79;100.00;99203.28;5097502;28;20431;-76
2021/11/25 09:25:53;;;;;;;56.72;33.22;;;;;;;3.23;98.76;99199.66;5096014;28;20093;-76
2021/11/25 09:28:37;;;;;;;51.70;29.75;;;;;;;3.45;98.44;99200.41;5097250;28;20447;-76
2021/11/25 09:31:22;;;;;;;63.33;36.58;;;;;;;3.43;97.18;99194.38;5096378;28;20345;-76
2021/11/25 09:34:07;;;;;;;59.28;31.17;;;;;;;3.49;96.28;99191.75;5096411;28;20040;-75
2021/11/25 09:36:52;;;;;;;42.47;25.85;;;;;;;3.62;96.13;99188.19;5096668;28;20051;-76
2021/11/25 09:39:37;;;;;;;68.85;42.65;;;;;;;3.40;96.63;99182.28;5097122;28;20044;-76
2021/11/25 09:42:21;;;;;;;37.95;26.63;;;;;;;3.33;96.14;99179.75;5096198;28;20109;-76
2021/11/25 09:45:06;;;;;;;27.73;19.02;;;;;;;3.57;96.63;99183.91;5096800;28;20432;-75
2021/11/25 09:47:54;;;;;;;41.13;25.65;;;;;;;3.25;95.36;99183.25;5096607;28;20432;-76
2021/11/25 09:50:45;;;;;;;44.15;26.38;;;;;;;3.49;96.38;99165.84;5096944;28;20040;-75
2021/11/25 09:53:30;;;;;;;52.45;28.88;;;;;;;3.49;95.81;99161.53;5096729;28;20036;-76
2021/11/25 09:56:14;;;;;;;60.40;33.33;;;;;;;3.67;95.84;99170.03;5096652;28;20055;-75
2021/11/25 09:58:59;;;;;;;38.75;24.23;;;;;;;3.85;96.04;99158.69;5095832;28;20421;-75
2021/11/25 10:01:44;;;;;;;39.63;24.45;;;;;;;3.91;93.22;99151.72;5096804;28;20048;-75
2021/11/25 10:04:28;;;;;;;38.38;23.42;;;;;;;3.90;94.22;99133.56;5096104;28;20058;-73
2021/11/25 10:07:28;;;;;;;53.13;30.33;;;;;;;4.05;92.68;99130.00;5096343;28;20044;-73
2021/11/25 10:10:39;;;;;;;64.82;37.50;;;;;;;4.22;90.79;99136.75;5097076;28;20040;-74
2021/11/25 10:13:24;;;;;;;113.95;65.00;;;;;;;4.01;91.48;99125.72;5095882;28;20044;-74
2021/11/25 10:16:13;;;;;;;65.30;37.28;;;;;;;3.97;90.02;99111.94;5095328;28;20044;-74
2021/11/25 10:19:09;;;;;;;41.55;24.30;;;;;;;4.25;90.93;99093.50;5097216;28;20118;-75
2021/11/25 10:21:57;;;;;;;58.50;31.80;;;;;;;4.43;89.75;99088.13;5095588;28;20044;-74
2021/11/25 10:24:45;;;;;;;40.28;21.92;;;;;;;3.75;90.43;99088.81;5096331;28;20433;-75
2021/11/25 10:27:29;;;;;;;39.50;21.90;;;;;;;4.48;90.83;99091.50;5096145;28;20345;-74
2021/11/25 10:30:18;;;;;;;31.45;19.20;;;;;;;4.45;89.55;99083.75;5096613;28;20036;-74
2021/11/25 10:33:03;;;;;;;38.75;20.90;;;;;;;4.58;90.80;99074.09;5095644;28;20047;-75
2021/11/25 10:36:03;;;;;;;47.75;26.83;;;;;;;4.17;90.70;99068.53;5095644;28;20040;-74
2021/11/25 10:41:42;;;;;;;42.65;25.75;;;;;;;3.98;90.92;99073.03;5096353;28;20040;-75
2021/11/25 10:44:29;;;;;;;32.47;21.50;;;;;;;4.33;91.90;99081.31;5095796;28;20040;-75
2021/11/25 10:47:16;;;;;;;43.92;25.73;;;;;;;4.43;92.30;99069.97;5094983;28;20395;-75
2021/11/25 10:50:06;;;;;;;37.80;22.60;;;;;;;4.16;93.13;99069.41;5094824;28;20044;-75
2021/11/25 10:52:52;;;;;;;33.63;21.50;;;;;;;4.21;92.67;99056.38;5095040;28;20048;-75
2021/11/25 10:55:38;;;;;;;31.30;21.98;;;;;;;4.06;91.38;99056.53;5093743;28;20043;-74
2021/11/25 10:58:22;;;;;;;32.90;21.75;;;;;;;4.40;90.21;99065.66;5094261;28;20052;-75
2021/11/25 11:01:07;;;;;;;31.23;20.63;;;;;;;4.40;90.29;99063.06;5095076;28;20048;-75
2021/11/25 11:03:57;;;;;;;29.00;19.80;;;;;;;4.25;90.72;99054.63;5094463;28;20390;-75
2021/11/25 11:06:43;;;;;;;35.08;21.27;;;;;;;4.46;90.09;99056.97;5093657;28;20048;-75
2021/11/25 11:09:34;;;;;;;30.63;20.08;;;;;;;4.35;88.96;99057.06;5079222;28;20115;-74
2021/11/25 11:12:41;;;;;;;29.50;17.98;;;;;;;4.75;88.27;99051.41;5099331;28;20048;-75
2021/11/25 11:20:57;;;;;;;27.90;16.77;;;;;;;4.51;85.71;99049.13;5094360;28;20044;-75
2021/11/25 11:23:42;;;;;;;27.40;15.77;;;;;;;4.62;84.36;99045.53;5097765;28;20044;-75
2021/11/25 11:26:27;;;;;;;22.35;14.20;;;;;;;4.50;84.95;99037.03;5096727;28;20048;-74
2021/11/25 11:29:15;;;;;;;19.92;13.43;;;;;;;4.53;83.44;99037.84;5097155;28;20044;-74
2021/11/25 11:32:04;;;;;;;20.08;13.80;;;;;;;4.67;87.12;99038.50;5097169;28;20058;-73
2021/11/25 11:34:53;;;;;;;21.67;13.38;;;;;;;5.07;85.52;99040.56;5097676;28;20036;-74
2021/11/25 11:37:40;;;;;;;21.38;13.95;;;;;;;4.57;84.56;99029.13;5098856;28;20032;-74
2021/11/25 11:40:27;;;;;;;21.38;14.38;;;;;;;4.52;83.63;99024.88;5099456;28;20470;-74
2021/11/25 11:43:13;;;;;;;23.67;15.27;;;;;;;4.63;85.28;99023.88;5099633;28;20036;-74
2021/11/25 11:45:58;;;;;;;19.45;13.13;;;;;;;4.63;85.56;99012.66;5099210;28;20040;-73
2021/11/25 11:48:44;;;;;;;21.75;14.38;;;;;;;4.54;85.55;99003.25;5099371;28;20048;-73
2021/11/25 11:51:29;;;;;;;21.73;14.40;;;;;;;4.79;85.21;99006.38;5099439;28;20036;-73
2021/11/25 11:54:18;;;;;;;26.38;16.85;;;;;;;4.69;84.30;98995.25;5099572;28;20100;-73
2021/11/25 11:57:03;;;;;;;21.35;15.50;;;;;;;4.63;84.38;98984.97;5098063;28;20040;-74
2021/11/25 11:59:47;;;;;;;24.88;14.95;;;;;;;4.77;83.88;98981.31;5099005;28;20048;-73
2021/11/25 12:02:41;;;;;;;40.00;23.85;;;;;;;4.66;85.26;98976.28;5099557;28;20125;-73
2021/11/25 12:05:44;;;;;;;32.13;19.70;;;;;;;4.47;85.49;98975.69;5099418;28;20043;-74
2021/11/25 12:08:30;;;;;;;24.25;16.20;;;;;;;4.51;84.97;98974.75;5098520;28;20100;-74
2021/11/25 12:11:16;;;;;;;30.80;19.23;;;;;;;4.55;85.03;98970.38;5099004;28;20040;-73
2021/11/25 12:14:05;;;;;;;43.67;26.38;;;;;;;4.53;86.11;98970.41;5098716;28;20089;-73
2021/11/25 12:16:52;;;;;;;25.25;16.25;;;;;;;4.61;86.12;98963.38;5098272;28;20417;-74
2021/11/25 12:19:44;;;;;;;31.50;18.98;;;;;;;4.33;85.24;98968.09;5099285;28;20044;-74
2021/11/25 12:22:29;;;;;;;25.45;16.48;;;;;;;4.65;85.47;98962.47;5097800;28;20433;-74
2021/11/25 12:25:28;;;;;;;25.60;16.40;;;;;;;4.81;86.17;98960.50;5097827;28;20036;-74
2021/11/25 12:28:27;;;;;;;33.72;19.35;;;;;;;4.82;86.16;98943.19;5099070;28;20043;-74
2021/11/25 12:33:59;;;;;;;25.20;16.27;;;;;;;4.36;86.61;98942.13;5098771;28;20063;-74
2021/11/25 12:36:44;;;;;;;22.92;15.70;;;;;;;4.56;86.27;98935.81;5097508;28;20177;-73
2021/11/25 12:39:38;;;;;;;22.77;14.18;;;;;;;4.51;86.23;98937.59;5098600;28;20044;-73
2021/11/25 12:42:22;;;;;;;24.40;15.30;;;;;;;4.49;87.50;98927.25;5097469;28;20337;-73
2021/11/25 12:45:43;;;;;;;21.40;14.90;;;;;;;4.43;86.32;98920.41;5083393;28;20044;-73
2021/11/25 12:48:40;;;;;;;22.65;15.13;;;;;;;4.50;86.02;98917.75;5097909;28;20043;-73
2021/11/25 12:51:28;;;;;;;22.73;15.00;;;;;;;3.95;87.88;98912.41;5097271;28;20044;-74
2021/11/25 12:54:15;;;;;;;20.95;14.90;;;;;;;3.88;88.00;98907.34;5097964;28;20044;-74
2021/11/25 12:57:00;;;;;;;21.40;14.52;;;;;;;3.94;89.43;98915.03;5097501;28;20056;-74